createdAt,value
2023-02-18T00:00:00.711Z,10.2
2023-02-18T00:01:00.688Z,10.2
2023-02-18T00:02:00.605Z,10.2
2023-02-18T00:03:00.698Z,10.2
2023-02-18T00:04:00.558Z,10.2
2023-02-18T00:05:00.582Z,10.2
2023-02-18T00:06:00.555Z,10.2
2023-02-18T00:07:00.550Z,10.2
2023-02-18T00:08:00.569Z,10.2
2023-02-18T00:09:00.579Z,10.2
2023-02-18T00:10:00.594Z,10.2
2023-02-18T00:11:00.557Z,10.2
2023-02-18T00:12:00.570Z,10.2
2023-02-18T00:13:00.560Z,10.2
2023-02-18T00:14:00.579Z,10.2
2023-02-18T00:15:00.579Z,10.2
2023-02-18T00:16:00.609Z,10.2
2023-02-18T00:17:00.575Z,10.2
2023-02-18T00:18:00.589Z,10.2
2023-02-18T00:19:00.597Z,10.2
2023-02-18T00:20:00.600Z,10.2
2023-02-18T00:21:00.561Z,10.2
2023-02-18T00:22:00.569Z,10.2
2023-02-18T00:23:00.610Z,10.1
2023-02-18T00:24:00.621Z,10.1
2023-02-18T00:25:00.589Z,10.1
2023-02-18T00:26:00.575Z,10.1
2023-02-18T00:27:00.571Z,10.1
2023-02-18T00:28:00.575Z,10.1
2023-02-18T00:29:00.590Z,10.1
2023-02-18T00:30:00.749Z,10.1
2023-02-18T00:31:00.641Z,10.1
2023-02-18T00:32:00.701Z,10.1
2023-02-18T00:33:00.594Z,10.1
2023-02-18T00:34:00.581Z,10.1
2023-02-18T00:35:00.596Z,10.1
2023-02-18T00:36:00.589Z,10.1
2023-02-18T00:37:00.596Z,10.1
2023-02-18T00:38:00.597Z,10.1
2023-02-18T00:39:00.585Z,10.1
2023-02-18T00:40:00.625Z,10.1
2023-02-18T00:41:00.591Z,10.1
2023-02-18T00:42:00.605Z,10.1
2023-02-18T00:43:00.594Z,10.1
2023-02-18T00:44:00.606Z,10.1
2023-02-18T00:45:00.633Z,10.1
2023-02-18T00:46:00.662Z,10.1
2023-02-18T00:47:00.596Z,10.1
2023-02-18T00:48:00.607Z,10.1
2023-02-18T00:49:00.593Z,10.1
2023-02-18T00:50:00.614Z,10.1
2023-02-18T00:51:00.595Z,10.1
2023-02-18T00:52:00.615Z,10.1
2023-02-18T00:53:00.612Z,10.1
2023-02-18T00:54:00.598Z,10.1
2023-02-18T00:55:00.625Z,10.1
2023-02-18T00:56:00.605Z,10.1
2023-02-18T00:57:00.602Z,10.1
2023-02-18T00:58:00.632Z,10.1
2023-02-18T00:59:00.609Z,10.1
2023-02-18T01:00:00.651Z,10.1
2023-02-18T01:01:00.607Z,10.1
2023-02-18T01:02:00.615Z,10.1
2023-02-18T01:03:00.630Z,10.1
2023-02-18T01:04:00.618Z,10.1
2023-02-18T01:05:00.661Z,10.1
2023-02-18T01:06:00.614Z,10.1
2023-02-18T01:07:00.616Z,10.1
2023-02-18T01:08:00.644Z,10.1
2023-02-18T01:09:00.632Z,10.1
2023-02-18T01:10:00.638Z,10.1
2023-02-18T01:11:00.626Z,10.1
2023-02-18T01:12:00.621Z,10.1
2023-02-18T01:13:00.647Z,10.1
2023-02-18T01:14:00.631Z,10.1
2023-02-18T01:15:00.664Z,10
2023-02-18T01:16:00.682Z,10
2023-02-18T01:17:00.643Z,10
2023-02-18T01:18:00.653Z,10
2023-02-18T01:19:00.662Z,10
2023-02-18T01:20:00.655Z,10
2023-02-18T01:21:00.642Z,10
2023-02-18T01:22:00.649Z,10
2023-02-18T01:23:00.650Z,10.1
2023-02-18T01:24:00.636Z,10.1
2023-02-18T01:25:00.646Z,10.1
2023-02-18T01:26:00.641Z,10.1
2023-02-18T01:27:00.658Z,10
2023-02-18T01:28:00.658Z,10.1
2023-02-18T01:29:00.645Z,10
2023-02-18T01:30:00.744Z,10
2023-02-18T01:31:00.688Z,10
2023-02-18T01:32:00.758Z,10
2023-02-18T01:33:00.664Z,10
2023-02-18T01:34:00.651Z,10
2023-02-18T01:35:00.651Z,10
2023-02-18T01:36:00.646Z,10
2023-02-18T01:37:00.669Z,10
2023-02-18T01:38:00.682Z,10.1
2023-02-18T01:39:00.669Z,10.1
2023-02-18T01:40:00.665Z,10
2023-02-18T01:41:00.666Z,10
2023-02-18T01:42:00.673Z,10
2023-02-18T01:43:00.657Z,10
2023-02-18T01:44:00.645Z,10
2023-02-18T01:45:00.649Z,10
2023-02-18T01:46:00.670Z,10
2023-02-18T01:47:00.674Z,9.9
2023-02-18T01:48:00.670Z,10
2023-02-18T01:49:00.694Z,10
2023-02-18T01:50:00.679Z,10
2023-02-18T01:51:00.659Z,10
2023-02-18T01:52:00.680Z,10
2023-02-18T01:53:00.661Z,10
2023-02-18T01:54:00.655Z,10
2023-02-18T01:55:00.668Z,10
2023-02-18T01:56:00.676Z,10
2023-02-18T01:57:00.712Z,10
2023-02-18T01:58:00.683Z,10
2023-02-18T01:59:00.670Z,10
2023-02-18T02:00:00.719Z,9.9
2023-02-18T02:01:00.833Z,9.9
2023-02-18T02:02:00.725Z,9.9
2023-02-18T02:03:00.682Z,9.9
2023-02-18T02:04:00.673Z,10
2023-02-18T02:05:00.673Z,10
2023-02-18T02:06:00.700Z,10
2023-02-18T02:07:00.694Z,9.9
2023-02-18T02:08:00.675Z,9.9
2023-02-18T02:09:00.684Z,9.9
2023-02-18T02:10:00.703Z,9.9
2023-02-18T02:11:00.695Z,9.9
2023-02-18T02:12:00.679Z,9.9
2023-02-18T02:13:00.693Z,9.9
2023-02-18T02:14:00.679Z,9.9
2023-02-18T02:15:00.684Z,9.9
2023-02-18T02:16:00.738Z,9.9
2023-02-18T02:17:00.686Z,9.9
2023-02-18T02:18:00.702Z,9.9
2023-02-18T02:19:00.690Z,9.9
2023-02-18T02:20:00.713Z,9.9
2023-02-18T02:22:00.704Z,9.9
2023-02-18T02:23:00.708Z,9.9
2023-02-18T02:24:00.691Z,9.9
2023-02-18T02:25:00.729Z,9.8
2023-02-18T02:26:00.692Z,9.8
2023-02-18T02:27:00.716Z,9.8
2023-02-18T02:28:00.968Z,9.8
2023-02-18T02:29:00.720Z,9.8
2023-02-18T02:30:00.783Z,9.8
2023-02-18T02:31:00.759Z,9.8
2023-02-18T02:32:00.766Z,9.8
2023-02-18T02:33:00.706Z,9.8
2023-02-18T02:34:00.750Z,9.8
2023-02-18T02:35:00.733Z,9.8
2023-02-18T02:36:00.712Z,9.8
2023-02-18T02:37:00.728Z,9.8
2023-02-18T02:38:00.718Z,9.8
2023-02-18T02:39:00.717Z,9.8
2023-02-18T02:40:00.759Z,9.8
2023-02-18T02:41:00.709Z,9.8
2023-02-18T02:42:00.755Z,9.8
2023-02-18T02:43:00.734Z,9.8
2023-02-18T02:44:00.734Z,9.8
2023-02-18T02:45:00.731Z,9.7
2023-02-18T02:46:00.753Z,9.7
2023-02-18T02:47:00.749Z,9.7
2023-02-18T02:48:00.731Z,9.7
2023-02-18T02:49:00.727Z,9.7
2023-02-18T02:50:00.759Z,9.7
2023-02-18T02:51:00.756Z,9.7
2023-02-18T02:52:00.739Z,9.7
2023-02-18T02:53:00.726Z,9.7
2023-02-18T02:54:00.735Z,9.7
2023-02-18T02:55:01.575Z,9.6
2023-02-18T02:56:00.749Z,9.6
2023-02-18T02:57:00.759Z,9.6
2023-02-18T02:58:00.752Z,9.6
2023-02-18T02:59:00.743Z,9.6
2023-02-18T03:00:01.117Z,9.6
2023-02-18T03:01:01.216Z,9.6
2023-02-18T03:02:01.131Z,9.6
2023-02-18T03:03:01.181Z,9.6
2023-02-18T03:04:01.122Z,9.6
2023-02-18T03:05:01.149Z,9.6
2023-02-18T03:06:01.139Z,9.6
2023-02-18T03:07:01.139Z,9.6
2023-02-18T03:08:01.128Z,9.6
2023-02-18T03:09:01.128Z,9.6
2023-02-18T03:10:01.293Z,9.6
2023-02-18T03:11:01.161Z,9.6
2023-02-18T03:12:01.218Z,9.6
2023-02-18T03:13:01.221Z,9.6
2023-02-18T03:14:01.208Z,9.6
2023-02-18T03:15:01.299Z,9.6
2023-02-18T03:16:01.268Z,9.6
2023-02-18T03:17:01.217Z,9.5
2023-02-18T03:18:01.213Z,9.5
2023-02-18T03:19:01.271Z,9.5
2023-02-18T03:20:01.275Z,9.5
2023-02-18T03:21:01.305Z,9.5
2023-02-18T03:22:01.324Z,9.5
2023-02-18T03:23:01.320Z,9.5
2023-02-18T03:24:01.256Z,9.4
2023-02-18T03:25:01.280Z,9.4
2023-02-18T03:26:01.257Z,9.4
2023-02-18T03:27:01.324Z,9.4
2023-02-18T03:28:01.318Z,9.4
2023-02-18T03:29:01.311Z,9.4
2023-02-18T03:30:01.340Z,9.4
2023-02-18T03:31:01.339Z,9.4
2023-02-18T03:32:01.340Z,9.4
2023-02-18T03:33:01.207Z,9.4
2023-02-18T03:34:01.243Z,9.4
2023-02-18T03:35:01.214Z,9.4
2023-02-18T03:36:01.158Z,9.4
2023-02-18T03:37:01.206Z,9.4
2023-02-18T03:38:01.286Z,9.4
2023-02-18T03:39:01.162Z,9.4
2023-02-18T03:40:01.199Z,9.4
2023-02-18T03:41:01.179Z,9.4
2023-02-18T03:42:01.246Z,9.4
2023-02-18T03:43:01.184Z,9.4
2023-02-18T03:44:01.167Z,9.4
2023-02-18T03:45:01.160Z,9.4
2023-02-18T03:46:01.267Z,9.4
2023-02-18T03:47:01.175Z,9.4
2023-02-18T03:48:01.186Z,9.4
2023-02-18T03:49:01.162Z,9.4
2023-02-18T03:50:01.168Z,9.3
2023-02-18T03:51:01.167Z,9.4
2023-02-18T03:52:01.181Z,9.3
2023-02-18T03:53:01.184Z,9.3
2023-02-18T03:54:01.165Z,9.3
2023-02-18T03:55:01.166Z,9.3
2023-02-18T03:56:01.184Z,9.3
2023-02-18T03:57:01.176Z,9.3
2023-02-18T03:58:01.185Z,9.4
2023-02-18T03:59:01.175Z,9.3
2023-02-18T04:00:01.198Z,9.4
2023-02-18T04:01:01.199Z,9.4
2023-02-18T04:02:01.165Z,9.4
2023-02-18T04:03:01.191Z,9.4
2023-02-18T04:04:01.226Z,9.4
2023-02-18T04:05:01.172Z,9.4
2023-02-18T04:06:01.199Z,9.4
2023-02-18T04:07:01.193Z,9.4
2023-02-18T04:08:01.203Z,9.4
2023-02-18T04:09:01.196Z,9.4
2023-02-18T04:10:01.207Z,9.4
2023-02-18T04:11:01.200Z,9.4
2023-02-18T04:12:01.198Z,9.4
2023-02-18T04:13:01.183Z,9.4
2023-02-18T04:14:01.180Z,9.4
2023-02-18T04:15:01.202Z,9.4
2023-02-18T04:16:01.200Z,9.4
2023-02-18T04:17:01.179Z,9.4
2023-02-18T04:18:01.200Z,9.4
2023-02-18T04:19:01.181Z,9.4
2023-02-18T04:20:01.209Z,9.4
2023-02-18T04:21:01.200Z,9.4
2023-02-18T04:22:01.203Z,9.4
2023-02-18T04:23:01.194Z,9.4
2023-02-18T04:24:01.202Z,9.4
2023-02-18T04:25:01.218Z,9.4
2023-02-18T04:26:01.200Z,9.4
2023-02-18T04:27:01.218Z,9.4
2023-02-18T04:28:01.194Z,9.4
2023-02-18T04:29:01.198Z,9.4
2023-02-18T04:30:01.290Z,9.4
2023-02-18T04:31:01.215Z,9.4
2023-02-18T04:32:01.244Z,9.4
2023-02-18T04:33:01.217Z,9.4
2023-02-18T04:34:01.199Z,9.4
2023-02-18T04:35:01.228Z,9.4
2023-02-18T04:36:01.206Z,9.4
2023-02-18T04:37:01.230Z,9.4
2023-02-18T04:38:01.209Z,9.4
2023-02-18T04:39:01.211Z,9.4
2023-02-18T04:40:01.258Z,9.4
2023-02-18T04:41:01.209Z,9.4
2023-02-18T04:42:01.205Z,9.4
2023-02-18T04:43:01.210Z,9.4
2023-02-18T04:44:01.224Z,9.4
2023-02-18T04:45:01.233Z,9.4
2023-02-18T04:46:01.290Z,9.4
2023-02-18T04:47:01.210Z,9.4
2023-02-18T04:48:01.254Z,9.4
2023-02-18T04:49:01.225Z,9.4
2023-02-18T04:50:01.278Z,9.4
2023-02-18T04:51:01.224Z,9.4
2023-02-18T04:52:01.231Z,9.4
2023-02-18T04:53:01.229Z,9.4
2023-02-18T04:54:01.222Z,9.4
2023-02-18T04:55:01.242Z,9.3
2023-02-18T04:56:01.248Z,9.3
2023-02-18T04:57:01.242Z,9.4
2023-02-18T04:58:01.225Z,9.3
2023-02-18T04:59:00.548Z,9.3
2023-02-18T05:00:00.552Z,9.3
2023-02-18T05:01:00.615Z,9.3
2023-02-18T05:02:00.553Z,9.3
2023-02-18T05:03:00.581Z,9.3
2023-02-18T05:04:00.632Z,9.3
2023-02-18T05:05:00.568Z,9.3
2023-02-18T05:06:00.585Z,9.3
2023-02-18T05:07:00.579Z,9.3
2023-02-18T05:08:00.563Z,9.3
2023-02-18T05:09:00.570Z,9.4
2023-02-18T05:10:00.575Z,9.3
2023-02-18T05:11:00.581Z,9.3
2023-02-18T05:12:00.611Z,9.3
2023-02-18T05:13:00.585Z,9.3
2023-02-18T05:14:00.576Z,9.4
2023-02-18T05:15:00.597Z,9.3
2023-02-18T05:16:00.675Z,9.3
2023-02-18T05:17:00.580Z,9.3
2023-02-18T05:18:00.583Z,9.3
2023-02-18T05:19:00.591Z,9.3
2023-02-18T05:20:00.615Z,9.3
2023-02-18T05:21:00.610Z,9.3
2023-02-18T05:22:00.577Z,9.3
2023-02-18T05:23:00.580Z,9.3
2023-02-18T05:24:00.586Z,9.3
2023-02-18T05:25:00.613Z,9.3
2023-02-18T05:26:00.626Z,9.3
2023-02-18T05:27:00.598Z,9.3
2023-02-18T05:28:00.609Z,9.3
2023-02-18T05:29:00.585Z,9.4
2023-02-18T05:30:00.677Z,9.3
2023-02-18T05:31:00.741Z,9.3
2023-02-18T05:32:00.687Z,9.4
2023-02-18T05:33:00.588Z,9.3
2023-02-18T05:34:00.603Z,9.3
2023-02-18T05:35:00.611Z,9.4
2023-02-18T05:36:00.611Z,9.3
2023-02-18T05:37:00.612Z,9.4
2023-02-18T05:38:00.603Z,9.4
2023-02-18T05:39:00.602Z,9.4
2023-02-18T05:40:00.634Z,9.4
2023-02-18T05:41:00.611Z,9.4
2023-02-18T05:42:00.614Z,9.4
2023-02-18T05:43:00.621Z,9.4
2023-02-18T05:44:00.619Z,9.3
2023-02-18T05:45:00.607Z,9.3
2023-02-18T05:46:00.669Z,9.3
2023-02-18T05:47:00.642Z,9.3
2023-02-18T05:48:00.624Z,9.3
2023-02-18T05:49:00.604Z,9.2
2023-02-18T05:50:00.612Z,9.2
2023-02-18T05:51:00.628Z,9.2
2023-02-18T05:52:00.611Z,9.2
2023-02-18T05:53:00.623Z,9.2
2023-02-18T05:54:00.626Z,9.2
2023-02-18T05:55:00.610Z,9.2
2023-02-18T05:56:00.633Z,9.2
2023-02-18T05:57:00.611Z,9.2
2023-02-18T05:58:00.630Z,9.2
2023-02-18T05:59:00.632Z,9.2
2023-02-18T06:00:00.646Z,9.2
2023-02-18T06:01:00.634Z,9.2
2023-02-18T06:02:00.628Z,9.2
2023-02-18T06:03:00.676Z,9.2
2023-02-18T06:04:00.628Z,9.2
2023-02-18T06:05:00.648Z,9.2
2023-02-18T06:06:00.714Z,9.2
2023-02-18T06:07:00.642Z,9.2
2023-02-18T06:08:00.627Z,9.2
2023-02-18T06:09:00.629Z,9.2
2023-02-18T06:10:00.655Z,9.2
2023-02-18T06:11:00.662Z,9.2
2023-02-18T06:12:00.627Z,9.2
2023-02-18T06:13:00.647Z,9.2
2023-02-18T06:14:00.654Z,9.2
2023-02-18T06:15:00.631Z,9.2
2023-02-18T06:16:00.692Z,9.2
2023-02-18T06:17:00.638Z,9.2
2023-02-18T06:18:00.641Z,9.2
2023-02-18T06:19:00.633Z,9.2
2023-02-18T06:20:00.665Z,9.1
2023-02-18T06:21:00.671Z,9.1
2023-02-18T06:22:00.635Z,9.1
2023-02-18T06:23:00.641Z,9.1
2023-02-18T06:24:00.642Z,9.1
2023-02-18T06:25:00.660Z,9.1
2023-02-18T06:26:00.665Z,9.1
2023-02-18T06:27:00.684Z,9.1
2023-02-18T06:28:00.641Z,9.1
2023-02-18T06:29:00.642Z,9.1
2023-02-18T06:30:01.061Z,9.1
2023-02-18T06:31:00.764Z,9.1
2023-02-18T06:32:00.818Z,9
2023-02-18T06:33:00.653Z,9
2023-02-18T06:34:00.691Z,9
2023-02-18T06:35:00.721Z,9
2023-02-18T06:36:00.717Z,9
2023-02-18T06:37:01.445Z,9
2023-02-18T06:38:00.664Z,9
2023-02-18T06:39:00.649Z,9
2023-02-18T06:40:00.800Z,9
2023-02-18T06:41:00.674Z,9
2023-02-18T06:42:00.766Z,9.1
2023-02-18T06:43:00.721Z,9.1
2023-02-18T06:44:00.761Z,9.1
2023-02-18T06:45:00.738Z,9.1
2023-02-18T06:46:00.707Z,9.1
2023-02-18T06:47:00.752Z,9.1
2023-02-18T06:48:00.727Z,9.1
2023-02-18T06:49:00.768Z,9.1
2023-02-18T06:50:00.810Z,9.1
2023-02-18T06:51:00.832Z,9.1
2023-02-18T06:52:00.814Z,9.1
2023-02-18T06:53:00.770Z,9.2
2023-02-18T06:54:00.828Z,9.2
2023-02-18T06:55:00.811Z,9.2
2023-02-18T06:56:00.784Z,9.2
2023-02-18T06:57:00.900Z,9.2
2023-02-18T06:58:00.812Z,9.2
2023-02-18T06:59:00.830Z,9.3
2023-02-18T07:00:00.839Z,9.3
2023-02-18T07:01:00.892Z,9.3
2023-02-18T07:02:00.803Z,9.3
2023-02-18T07:03:00.820Z,9.3
2023-02-18T07:04:00.901Z,9.4
2023-02-18T07:05:00.680Z,9.4
2023-02-18T07:06:00.845Z,9.4
2023-02-18T07:07:00.783Z,9.4
2023-02-18T07:08:00.804Z,9.4
2023-02-18T07:09:00.886Z,9.4
2023-02-18T07:10:00.769Z,9.4
2023-02-18T07:11:00.953Z,9.4
2023-02-18T07:12:00.698Z,9.5
2023-02-18T07:13:00.811Z,9.5
2023-02-18T07:14:00.711Z,9.5
2023-02-18T07:15:00.746Z,9.5
2023-02-18T07:16:00.735Z,9.5
2023-02-18T07:17:00.691Z,9.5
2023-02-18T07:18:00.716Z,9.6
2023-02-18T07:19:00.689Z,9.6
2023-02-18T07:20:00.749Z,9.6
2023-02-18T07:21:00.708Z,9.6
2023-02-18T07:22:00.697Z,9.6
2023-02-18T07:23:00.720Z,9.6
2023-02-18T07:24:00.726Z,9.6
2023-02-18T07:25:00.700Z,9.7
2023-02-18T07:26:00.716Z,9.7
2023-02-18T07:27:00.716Z,9.7
2023-02-18T07:28:00.704Z,9.8
2023-02-18T07:29:00.722Z,9.8
2023-02-18T07:30:00.870Z,9.8
2023-02-18T07:31:00.771Z,9.8
2023-02-18T07:32:00.739Z,9.8
2023-02-18T07:33:03.016Z,9.9
2023-02-18T07:34:00.720Z,9.8
2023-02-18T07:35:00.730Z,9.9
2023-02-18T07:36:00.704Z,9.9
2023-02-18T07:37:00.737Z,9.9
2023-02-18T07:38:00.741Z,9.9
2023-02-18T07:39:00.731Z,9.9
2023-02-18T07:40:00.945Z,9.9
2023-02-18T07:41:00.716Z,9.9
2023-02-18T07:42:00.739Z,9.9
2023-02-18T07:43:00.723Z,9.9
2023-02-18T07:44:00.765Z,9.9
2023-02-18T07:45:00.742Z,10
2023-02-18T07:46:00.744Z,10
2023-02-18T07:47:00.742Z,10
2023-02-18T07:48:00.722Z,10
2023-02-18T07:49:00.723Z,10.1
2023-02-18T07:50:00.752Z,10
2023-02-18T07:51:00.749Z,10.1
2023-02-18T07:52:00.745Z,10.1
2023-02-18T07:53:00.727Z,10.1
2023-02-18T07:54:00.727Z,10.1
2023-02-18T07:55:00.759Z,10.1
2023-02-18T07:56:00.728Z,10.1
2023-02-18T07:57:00.754Z,10.2
2023-02-18T07:58:00.738Z,10.1
2023-02-18T07:59:00.729Z,10.2
2023-02-18T08:00:00.789Z,10.2
2023-02-18T08:01:00.732Z,10.2
2023-02-18T08:02:00.831Z,10.2
2023-02-18T08:03:00.736Z,10.2
2023-02-18T08:04:00.814Z,10.3
2023-02-18T08:05:00.756Z,10.3
2023-02-18T08:06:00.761Z,10.3
2023-02-18T08:07:00.746Z,10.4
2023-02-18T08:08:00.740Z,10.4
2023-02-18T08:09:00.778Z,10.4
2023-02-18T08:10:00.793Z,10.4
2023-02-18T08:11:02.709Z,10.4
2023-02-18T08:12:00.775Z,10.4
2023-02-18T08:13:00.745Z,10.5
2023-02-18T08:14:00.776Z,10.5
2023-02-18T08:15:00.765Z,10.6
2023-02-18T08:16:00.753Z,10.6
2023-02-18T08:17:00.758Z,10.6
2023-02-18T08:18:00.753Z,10.6
2023-02-18T08:19:00.770Z,10.6
2023-02-18T08:20:00.805Z,10.6
2023-02-18T08:21:00.780Z,10.6
2023-02-18T08:22:00.767Z,10.6
2023-02-18T08:23:00.763Z,10.6
2023-02-18T08:24:00.779Z,10.6
2023-02-18T08:25:00.791Z,10.6
2023-02-18T08:26:00.761Z,10.6
2023-02-18T08:27:01.687Z,10.6
2023-02-18T08:28:00.779Z,10.6
2023-02-18T08:29:00.797Z,10.7
2023-02-18T08:30:00.882Z,10.7
2023-02-18T08:31:00.857Z,10.8
2023-02-18T08:32:00.859Z,10.7
2023-02-18T08:33:00.777Z,10.7
2023-02-18T08:34:00.806Z,10.7
2023-02-18T08:35:00.785Z,10.8
2023-02-18T08:36:00.797Z,10.8
2023-02-18T08:37:00.798Z,10.7
2023-02-18T08:38:00.787Z,10.7
2023-02-18T08:39:00.806Z,10.7
2023-02-18T08:40:00.795Z,10.7
2023-02-18T08:41:00.802Z,10.7
2023-02-18T08:42:00.809Z,10.7
2023-02-18T08:43:00.783Z,10.7
2023-02-18T08:44:00.807Z,10.7
2023-02-18T08:45:00.814Z,10.7
2023-02-18T08:46:00.873Z,10.7
2023-02-18T08:47:00.783Z,10.7
2023-02-18T08:48:17.624Z,10.7
2023-02-18T08:49:00.812Z,10.8
2023-02-18T08:50:00.813Z,10.8
2023-02-18T08:51:00.807Z,10.8
2023-02-18T08:52:00.801Z,10.8
2023-02-18T08:53:00.806Z,10.8
2023-02-18T08:54:00.820Z,10.8
2023-02-18T08:55:00.798Z,10.8
2023-02-18T08:56:00.800Z,10.8
2023-02-18T08:57:00.800Z,10.8
2023-02-18T08:58:00.798Z,10.8
2023-02-18T08:59:00.826Z,10.8
2023-02-18T09:00:00.851Z,10.8
2023-02-18T09:01:00.834Z,10.9
2023-02-18T09:02:00.806Z,10.9
2023-02-18T09:03:00.805Z,10.9
2023-02-18T09:04:00.844Z,10.9
2023-02-18T09:05:00.807Z,10.9
2023-02-18T09:06:00.831Z,10.9
2023-02-18T09:07:00.831Z,10.9
2023-02-18T09:08:00.816Z,11
2023-02-18T09:09:00.825Z,11
2023-02-18T09:10:00.829Z,11
2023-02-18T09:11:00.808Z,11
2023-02-18T09:12:00.820Z,11.1
2023-02-18T09:13:00.818Z,11.1
2023-02-18T09:14:00.839Z,11.1
2023-02-18T09:15:00.842Z,11.1
2023-02-18T09:16:00.853Z,11.1
2023-02-18T09:17:00.821Z,11.1
2023-02-18T09:18:00.820Z,11.1
2023-02-18T09:19:00.854Z,11.1
2023-02-18T09:20:00.851Z,11.1
2023-02-18T09:21:00.830Z,11.1
2023-02-18T09:22:00.946Z,11.1
2023-02-18T09:23:00.871Z,11.1
2023-02-18T09:24:00.838Z,11.1
2023-02-18T09:25:00.842Z,11.2
2023-02-18T09:26:00.815Z,11.2
2023-02-18T09:27:00.822Z,11.2
2023-02-18T09:28:00.820Z,11.2
2023-02-18T09:29:00.856Z,11.3
2023-02-18T09:30:00.874Z,11.4
2023-02-18T09:31:00.861Z,11.4
2023-02-18T09:32:00.868Z,11.4
2023-02-18T09:33:00.835Z,11.5
2023-02-18T09:34:00.866Z,11.5
2023-02-18T09:35:00.844Z,11.6
2023-02-18T09:36:00.829Z,11.6
2023-02-18T09:37:00.833Z,11.6
2023-02-18T09:38:00.830Z,11.6
2023-02-18T09:39:00.850Z,11.6
2023-02-18T09:40:00.847Z,11.6
2023-02-18T09:41:00.839Z,11.7
2023-02-18T09:42:00.873Z,11.6
2023-02-18T09:43:00.849Z,11.6
2023-02-18T09:44:00.893Z,11.6
2023-02-18T09:45:00.856Z,11.6
2023-02-18T09:46:00.875Z,11.6
2023-02-18T09:47:01.466Z,11.6
2023-02-18T09:48:00.860Z,11.6
2023-02-18T09:49:00.865Z,11.6
2023-02-18T09:50:00.865Z,11.6
2023-02-18T09:51:01.201Z,11.6
2023-02-18T09:52:00.848Z,11.6
2023-02-18T09:53:00.849Z,11.7
2023-02-18T09:54:00.891Z,11.8
2023-02-18T09:55:00.885Z,11.8
2023-02-18T09:56:00.862Z,11.8
2023-02-18T09:57:00.855Z,11.9
2023-02-18T09:58:00.876Z,11.9
2023-02-18T09:59:00.881Z,11.9
2023-02-18T10:00:00.919Z,11.9
2023-02-18T10:01:00.869Z,11.9
2023-02-18T10:02:02.345Z,12
2023-02-18T10:03:00.875Z,12
2023-02-18T10:04:00.882Z,12
2023-02-18T10:05:00.904Z,12
2023-02-18T10:06:00.875Z,12
2023-02-18T10:07:00.900Z,12
2023-02-18T10:08:00.867Z,12.1
2023-02-18T10:09:00.892Z,12.1
2023-02-18T10:10:00.898Z,12.1
2023-02-18T10:11:00.873Z,12.1
2023-02-18T10:12:00.892Z,12.1
2023-02-18T10:13:00.895Z,12.1
2023-02-18T10:14:00.876Z,12.1
2023-02-18T10:15:00.957Z,12.2
2023-02-18T10:16:00.952Z,12.2
2023-02-18T10:17:00.904Z,12.2
2023-02-18T10:18:00.905Z,12.2
2023-02-18T10:19:00.906Z,12.2
2023-02-18T10:20:02.270Z,12.2
2023-02-18T10:21:00.908Z,12.2
2023-02-18T10:22:00.911Z,12.3
2023-02-18T10:23:00.888Z,12.4
2023-02-18T10:24:00.904Z,12.4
2023-02-18T10:25:00.897Z,12.4
2023-02-18T10:26:00.889Z,12.5
2023-02-18T10:27:00.904Z,12.5
2023-02-18T10:28:00.913Z,12.5
2023-02-18T10:29:00.906Z,12.5
2023-02-18T10:30:00.966Z,12.6
2023-02-18T10:31:01.014Z,12.6
2023-02-18T10:32:00.975Z,12.6
2023-02-18T10:33:00.929Z,12.6
2023-02-18T10:34:00.925Z,12.6
2023-02-18T10:35:00.900Z,12.6
2023-02-18T10:36:00.897Z,12.6
2023-02-18T10:37:00.920Z,12.7
2023-02-18T10:38:00.922Z,12.8
2023-02-18T10:39:00.917Z,12.7
2023-02-18T10:40:00.939Z,12.8
2023-02-18T10:41:00.934Z,12.8
2023-02-18T10:42:00.944Z,12.8
2023-02-18T10:43:00.905Z,12.8
2023-02-18T10:44:00.918Z,12.9
2023-02-18T10:45:00.908Z,12.9
2023-02-18T10:46:00.912Z,12.9
2023-02-18T10:47:00.932Z,12.9
2023-02-18T10:48:00.941Z,13
2023-02-18T10:49:00.951Z,13
2023-02-18T10:50:00.947Z,13.1
2023-02-18T10:51:00.920Z,13.1
2023-02-18T10:52:00.941Z,13.1
2023-02-18T10:53:00.916Z,13.1
2023-02-18T10:54:00.934Z,13.1
2023-02-18T10:55:01.041Z,13.1
2023-02-18T10:56:01.008Z,13.1
2023-02-18T10:57:00.942Z,13
2023-02-18T10:58:00.916Z,13
2023-02-18T10:59:00.897Z,13.1
2023-02-18T11:00:00.973Z,13.1
2023-02-18T11:01:00.846Z,13.1
2023-02-18T11:02:00.946Z,13.1
2023-02-18T11:03:00.811Z,13.1
2023-02-18T11:04:00.764Z,13.2
2023-02-18T11:05:00.938Z,13.2
2023-02-18T11:06:00.708Z,13.2
2023-02-18T11:07:00.692Z,13.2
2023-02-18T11:08:00.655Z,13.2
2023-02-18T11:09:00.670Z,13.2
2023-02-18T11:10:00.648Z,13.2
2023-02-18T11:11:00.562Z,13.2
2023-02-18T11:12:08.326Z,13.2
2023-02-18T11:13:00.516Z,13.2
2023-02-18T11:14:00.547Z,13.2
2023-02-18T11:15:00.540Z,13.2
2023-02-18T11:16:00.607Z,13.2
2023-02-18T11:17:00.514Z,13.2
2023-02-18T11:18:00.564Z,13.2
2023-02-18T11:19:00.507Z,13.2
2023-02-18T11:20:00.558Z,13.2
2023-02-18T11:21:00.532Z,13.2
2023-02-18T11:22:00.515Z,13.2
2023-02-18T11:23:00.519Z,13.2
2023-02-18T11:24:00.537Z,13.2
2023-02-18T11:25:00.510Z,13.2
2023-02-18T11:26:00.565Z,13.2
2023-02-18T11:27:00.547Z,13.2
2023-02-18T11:28:00.525Z,13.3
2023-02-18T11:29:00.516Z,13.3
2023-02-18T11:30:00.593Z,13.4
2023-02-18T11:31:00.610Z,13.4
2023-02-18T11:32:00.627Z,13.4
2023-02-18T11:33:00.549Z,13.3
2023-02-18T11:34:00.525Z,13.4
2023-02-18T11:35:00.534Z,13.4
2023-02-18T11:36:00.577Z,13.4
2023-02-18T11:37:00.529Z,13.4
2023-02-18T11:38:00.531Z,13.4
2023-02-18T11:39:00.528Z,13.4
2023-02-18T11:40:00.547Z,13.4
2023-02-18T11:41:00.554Z,13.4
2023-02-18T11:42:00.547Z,13.3
2023-02-18T11:43:00.532Z,13.2
2023-02-18T11:44:00.549Z,13.2
2023-02-18T11:45:00.555Z,13.2
2023-02-18T11:46:00.559Z,13.2
2023-02-18T11:47:00.622Z,13.2
2023-02-18T11:48:00.558Z,13.2
2023-02-18T11:49:00.557Z,13.2
2023-02-18T11:50:00.566Z,13.2
2023-02-18T11:51:00.544Z,13.2
2023-02-18T11:52:00.545Z,13.2
2023-02-18T11:53:00.547Z,13.2
2023-02-18T11:54:00.558Z,13.2
2023-02-18T11:55:00.556Z,13.2
2023-02-18T11:56:00.545Z,13.2
2023-02-18T11:57:00.547Z,13.2
2023-02-18T11:58:00.558Z,13.2
2023-02-18T11:59:00.574Z,13.2
2023-02-18T12:00:00.570Z,13.2
2023-02-18T12:01:00.554Z,13.2
2023-02-18T12:02:00.592Z,13.2
2023-02-18T12:03:00.572Z,13.2
2023-02-18T12:04:00.578Z,13.2
2023-02-18T12:05:00.623Z,13.2
2023-02-18T12:06:00.576Z,13.2
2023-02-18T12:07:00.583Z,13.2
2023-02-18T12:08:00.578Z,13.2
2023-02-18T12:09:00.569Z,13.2
2023-02-18T12:10:00.587Z,13.2
2023-02-18T12:11:00.572Z,13.2
2023-02-18T12:12:00.580Z,13.2
2023-02-18T12:13:00.573Z,13.2
2023-02-18T12:14:00.588Z,13.2
2023-02-18T12:15:00.594Z,13.3
2023-02-18T12:16:00.570Z,13.3
2023-02-18T12:17:00.589Z,13.4
2023-02-18T12:18:00.589Z,13.4
2023-02-18T12:19:00.577Z,13.4
2023-02-18T12:20:00.595Z,13.5
2023-02-18T12:21:00.604Z,13.5
2023-02-18T12:22:00.583Z,13.6
2023-02-18T12:23:00.608Z,13.6
2023-02-18T12:24:00.599Z,13.6
2023-02-18T12:25:01.229Z,13.6
2023-02-18T12:26:00.603Z,13.7
2023-02-18T12:27:00.587Z,13.7
2023-02-18T12:28:00.591Z,13.8
2023-02-18T12:29:00.595Z,13.8
2023-02-18T12:30:00.690Z,13.8
2023-02-18T12:31:00.709Z,13.7
2023-02-18T12:32:00.691Z,13.7
2023-02-18T12:33:00.606Z,13.7
2023-02-18T12:34:00.597Z,13.7
2023-02-18T12:35:00.598Z,13.8
2023-02-18T12:36:00.638Z,13.8
2023-02-18T12:37:00.611Z,13.8
2023-02-18T12:38:00.590Z,13.9
2023-02-18T12:39:00.595Z,13.9
2023-02-18T12:40:00.606Z,13.9
2023-02-18T12:41:00.614Z,13.9
2023-02-18T12:42:00.618Z,14
2023-02-18T12:43:00.596Z,14.1
2023-02-18T12:44:00.610Z,14.1
2023-02-18T12:45:00.625Z,14.1
2023-02-18T12:46:00.719Z,14.1
2023-02-18T12:47:00.627Z,14.1
2023-02-18T12:48:00.605Z,14.1
2023-02-18T12:49:00.601Z,14.1
2023-02-18T12:50:00.629Z,14.1
2023-02-18T12:51:00.603Z,14.1
2023-02-18T12:52:00.629Z,14.1
2023-02-18T12:53:00.621Z,14.1
2023-02-18T12:54:00.626Z,14.1
2023-02-18T12:55:00.642Z,14.1
2023-02-18T12:56:00.690Z,14
2023-02-18T12:57:00.698Z,14.1
2023-02-18T12:58:00.623Z,14.1
2023-02-18T12:59:00.801Z,14.1
2023-02-18T13:00:00.661Z,14.1
2023-02-18T13:01:01.612Z,14.2
2023-02-18T13:02:00.688Z,14.2
2023-02-18T13:03:00.810Z,14.2
2023-02-18T13:04:00.713Z,14.2
2023-02-18T13:05:00.807Z,14.3
2023-02-18T13:06:00.745Z,14.3
2023-02-18T13:07:00.844Z,14.3
2023-02-18T13:08:00.760Z,14.3
2023-02-18T13:09:01.085Z,14.2
2023-02-18T13:10:01.012Z,14.2
2023-02-18T13:11:00.950Z,14.2
2023-02-18T13:12:00.879Z,14.2
2023-02-18T13:13:00.842Z,14.3
2023-02-18T13:14:00.807Z,14.4
2023-02-18T13:15:00.921Z,14.4
2023-02-18T13:16:00.749Z,14.4
2023-02-18T13:17:00.857Z,14.4
2023-02-18T13:18:00.857Z,14.4
2023-02-18T13:19:00.771Z,14.4
2023-02-18T13:20:00.808Z,14.4
2023-02-18T13:21:00.752Z,14.4
2023-02-18T13:22:00.815Z,14.5
2023-02-18T13:23:00.902Z,14.5
2023-02-18T13:24:00.726Z,14.4
2023-02-18T13:25:00.805Z,14.4
2023-02-18T13:26:01.230Z,14.4
2023-02-18T13:27:00.839Z,14.4
2023-02-18T13:28:00.654Z,14.4
2023-02-18T13:29:00.693Z,14.4
2023-02-18T13:30:00.866Z,14.4
2023-02-18T13:31:00.707Z,14.4
2023-02-18T13:32:00.800Z,14.4
2023-02-18T13:33:00.983Z,14.4
2023-02-18T13:34:00.658Z,14.4
2023-02-18T13:35:00.675Z,14.2